sensor_id;sensor_type;location;lat;lon;timestamp;P1;durP1;ratioP1;P2;durP2;ratioP2
19131;SDS011;9698;51.976;7.570;2023-07-31T00:02:24;3.63;;;2.70;;
19131;SDS011;9698;51.976;7.570;2023-07-31T00:04:52;3.17;;;2.03;;
19131;SDS011;9698;51.976;7.570;2023-07-31T00:07:20;2.73;;;2.00;;
19131;SDS011;9698;51.976;7.570;2023-07-31T00:09:48;2.60;;;2.23;;
19131;SDS011;9698;51.976;7.570;2023-07-31T00:12:16;2.63;;;2.03;;
19131;SDS011;9698;51.976;7.570;2023-07-31T00:14:44;2.10;;;1.90;;
19131;SDS011;9698;51.976;7.570;2023-07-31T00:17:12;2.10;;;1.90;;
19131;SDS011;9698;51.976;7.570;2023-07-31T00:19:40;2.10;;;1.90;;
19131;SDS011;9698;51.976;7.570;2023-07-31T00:22:07;2.10;;;1.90;;
19131;SDS011;9698;51.976;7.570;2023-07-31T00:24:35;3.73;;;2.00;;
19131;SDS011;9698;51.976;7.570;2023-07-31T00:27:04;1.87;;;1.77;;
19131;SDS011;9698;51.976;7.570;2023-07-31T00:29:32;2.07;;;1.87;;
19131;SDS011;9698;51.976;7.570;2023-07-31T00:32:00;2.07;;;1.83;;
19131;SDS011;9698;51.976;7.570;2023-07-31T00:34:28;1.67;;;1.57;;
19131;SDS011;9698;51.976;7.570;2023-07-31T00:36:55;2.47;;;2.00;;
19131;SDS011;9698;51.976;7.570;2023-07-31T00:39:42;1.60;;;1.50;;
19131;SDS011;9698;51.976;7.570;2023-07-31T00:42:10;3.83;;;1.73;;
19131;SDS011;9698;51.976;7.570;2023-07-31T00:44:38;2.27;;;1.93;;
19131;SDS011;9698;51.976;7.570;2023-07-31T00:47:06;3.00;;;2.03;;
19131;SDS011;9698;51.976;7.570;2023-07-31T00:49:34;2.10;;;1.43;;
19131;SDS011;9698;51.976;7.570;2023-07-31T00:52:02;1.67;;;1.57;;
19131;SDS011;9698;51.976;7.570;2023-07-31T00:54:31;2.10;;;1.50;;
19131;SDS011;9698;51.976;7.570;2023-07-31T00:56:59;1.70;;;1.60;;
19131;SDS011;9698;51.976;7.570;2023-07-31T00:59:27;1.67;;;1.57;;
19131;SDS011;9698;51.976;7.570;2023-07-31T01:01:55;1.60;;;1.50;;
19131;SDS011;9698;51.976;7.570;2023-07-31T01:04:23;2.60;;;1.70;;
19131;SDS011;9698;51.976;7.570;2023-07-31T01:06:53;1.70;;;1.40;;
19131;SDS011;9698;51.976;7.570;2023-07-31T01:09:30;2.43;;;1.70;;
19131;SDS011;9698;51.976;7.570;2023-07-31T01:12:04;1.63;;;1.40;;
19131;SDS011;9698;51.976;7.570;2023-07-31T01:14:35;1.60;;;1.50;;
19131;SDS011;9698;51.976;7.570;2023-07-31T01:17:04;2.33;;;1.70;;
19131;SDS011;9698;51.976;7.570;2023-07-31T01:19:32;2.23;;;1.80;;
19131;SDS011;9698;51.976;7.570;2023-07-31T01:22:11;1.67;;;1.57;;
19131;SDS011;9698;51.976;7.570;2023-07-31T01:25:07;1.40;;;1.30;;
19131;SDS011;9698;51.976;7.570;2023-07-31T01:27:44;3.73;;;1.60;;
19131;SDS011;9698;51.976;7.570;2023-07-31T01:30:21;1.50;;;1.40;;
19131;SDS011;9698;51.976;7.570;2023-07-31T01:32:52;1.60;;;1.50;;
19131;SDS011;9698;51.976;7.570;2023-07-31T01:35:21;1.73;;;1.50;;
19131;SDS011;9698;51.976;7.570;2023-07-31T01:37:49;1.43;;;1.30;;
19131;SDS011;9698;51.976;7.570;2023-07-31T01:40:20;1.40;;;1.30;;
19131;SDS011;9698;51.976;7.570;2023-07-31T01:42:48;2.43;;;1.30;;
19131;SDS011;9698;51.976;7.570;2023-07-31T01:45:16;3.03;;;1.60;;
19131;SDS011;9698;51.976;7.570;2023-07-31T01:47:44;2.10;;;1.20;;
19131;SDS011;9698;51.976;7.570;2023-07-31T01:50:12;1.47;;;1.27;;
19131;SDS011;9698;51.976;7.570;2023-07-31T01:52:40;1.37;;;1.17;;
19131;SDS011;9698;51.976;7.570;2023-07-31T01:55:08;1.70;;;1.20;;
19131;SDS011;9698;51.976;7.570;2023-07-31T01:57:36;1.60;;;1.30;;
19131;SDS011;9698;51.976;7.570;2023-07-31T02:00:06;2.20;;;1.43;;
19131;SDS011;9698;51.976;7.570;2023-07-31T02:02:34;1.30;;;1.20;;
19131;SDS011;9698;51.976;7.570;2023-07-31T02:05:03;4.17;;;1.23;;
19131;SDS011;9698;51.976;7.570;2023-07-31T02:07:32;1.30;;;1.00;;
19131;SDS011;9698;51.976;7.570;2023-07-31T02:10:00;2.57;;;1.03;;
19131;SDS011;9698;51.976;7.570;2023-07-31T02:12:28;1.30;;;1.20;;
19131;SDS011;9698;51.976;7.570;2023-07-31T02:14:58;0.90;;;0.90;;
19131;SDS011;9698;51.976;7.570;2023-07-31T02:17:26;1.00;;;1.00;;
19131;SDS011;9698;51.976;7.570;2023-07-31T02:19:53;3.20;;;1.17;;
19131;SDS011;9698;51.976;7.570;2023-07-31T02:22:21;2.00;;;1.60;;
19131;SDS011;9698;51.976;7.570;2023-07-31T02:24:49;1.60;;;1.50;;
19131;SDS011;9698;51.976;7.570;2023-07-31T02:27:17;2.83;;;2.10;;
19131;SDS011;9698;51.976;7.570;2023-07-31T02:29:45;2.97;;;2.50;;
19131;SDS011;9698;51.976;7.570;2023-07-31T02:32:13;4.40;;;2.80;;
19131;SDS011;9698;51.976;7.570;2023-07-31T02:34:41;9.77;;;3.27;;
19131;SDS011;9698;51.976;7.570;2023-07-31T02:37:09;9.00;;;4.07;;
19131;SDS011;9698;51.976;7.570;2023-07-31T02:39:37;8.43;;;4.50;;
19131;SDS011;9698;51.976;7.570;2023-07-31T02:42:05;9.37;;;5.67;;
19131;SDS011;9698;51.976;7.570;2023-07-31T02:44:33;9.80;;;5.50;;
19131;SDS011;9698;51.976;7.570;2023-07-31T02:47:01;11.63;;;6.03;;
19131;SDS011;9698;51.976;7.570;2023-07-31T02:49:29;15.77;;;6.77;;
19131;SDS011;9698;51.976;7.570;2023-07-31T02:51:57;11.83;;;6.13;;
19131;SDS011;9698;51.976;7.570;2023-07-31T02:54:25;11.90;;;6.43;;
19131;SDS011;9698;51.976;7.570;2023-07-31T02:56:53;11.80;;;6.37;;
19131;SDS011;9698;51.976;7.570;2023-07-31T02:59:21;12.83;;;6.37;;
19131;SDS011;9698;51.976;7.570;2023-07-31T03:01:48;11.70;;;6.70;;
19131;SDS011;9698;51.976;7.570;2023-07-31T03:04:16;9.67;;;5.37;;
19131;SDS011;9698;51.976;7.570;2023-07-31T03:06:45;11.50;;;5.20;;
19131;SDS011;9698;51.976;7.570;2023-07-31T03:09:12;10.63;;;5.87;;
19131;SDS011;9698;51.976;7.570;2023-07-31T03:11:40;12.50;;;6.10;;
19131;SDS011;9698;51.976;7.570;2023-07-31T03:14:08;12.60;;;6.40;;
19131;SDS011;9698;51.976;7.570;2023-07-31T03:16:37;10.50;;;6.07;;
19131;SDS011;9698;51.976;7.570;2023-07-31T03:19:05;13.63;;;6.10;;
19131;SDS011;9698;51.976;7.570;2023-07-31T03:21:33;11.93;;;5.80;;
19131;SDS011;9698;51.976;7.570;2023-07-31T03:24:00;9.60;;;5.60;;
19131;SDS011;9698;51.976;7.570;2023-07-31T03:26:28;11.17;;;5.93;;
19131;SDS011;9698;51.976;7.570;2023-07-31T03:28:58;11.50;;;5.27;;
19131;SDS011;9698;51.976;7.570;2023-07-31T03:31:26;12.23;;;6.07;;
19131;SDS011;9698;51.976;7.570;2023-07-31T03:33:54;11.27;;;5.90;;
19131;SDS011;9698;51.976;7.570;2023-07-31T03:36:22;9.77;;;5.50;;
19131;SDS011;9698;51.976;7.570;2023-07-31T03:38:50;11.43;;;5.30;;
19131;SDS011;9698;51.976;7.570;2023-07-31T03:41:18;8.97;;;5.27;;
19131;SDS011;9698;51.976;7.570;2023-07-31T03:43:49;10.60;;;5.67;;
19131;SDS011;9698;51.976;7.570;2023-07-31T03:46:18;14.33;;;5.60;;
19131;SDS011;9698;51.976;7.570;2023-07-31T03:48:46;12.67;;;5.60;;
19131;SDS011;9698;51.976;7.570;2023-07-31T03:51:14;10.93;;;5.43;;
19131;SDS011;9698;51.976;7.570;2023-07-31T03:53:45;8.17;;;5.00;;
19131;SDS011;9698;51.976;7.570;2023-07-31T03:56:13;13.43;;;5.63;;
19131;SDS011;9698;51.976;7.570;2023-07-31T03:58:41;12.07;;;5.00;;
19131;SDS011;9698;51.976;7.570;2023-07-31T04:01:09;9.10;;;5.17;;
19131;SDS011;9698;51.976;7.570;2023-07-31T04:03:36;17.40;;;5.63;;
19131;SDS011;9698;51.976;7.570;2023-07-31T04:06:04;11.60;;;5.63;;
19131;SDS011;9698;51.976;7.570;2023-07-31T04:08:33;11.30;;;5.13;;
19131;SDS011;9698;51.976;7.570;2023-07-31T04:11:01;9.53;;;5.80;;
19131;SDS011;9698;51.976;7.570;2023-07-31T04:13:29;10.67;;;5.17;;
19131;SDS011;9698;51.976;7.570;2023-07-31T04:15:57;11.40;;;5.37;;
19131;SDS011;9698;51.976;7.570;2023-07-31T04:18:25;11.80;;;6.10;;
19131;SDS011;9698;51.976;7.570;2023-07-31T04:20:53;10.37;;;5.53;;
19131;SDS011;9698;51.976;7.570;2023-07-31T04:23:21;10.50;;;5.73;;
19131;SDS011;9698;51.976;7.570;2023-07-31T04:25:49;11.43;;;5.23;;
19131;SDS011;9698;51.976;7.570;2023-07-31T04:28:17;9.03;;;5.07;;
19131;SDS011;9698;51.976;7.570;2023-07-31T04:30:45;13.47;;;5.63;;
19131;SDS011;9698;51.976;7.570;2023-07-31T04:33:16;11.60;;;5.30;;
19131;SDS011;9698;51.976;7.570;2023-07-31T04:35:49;9.17;;;5.20;;
19131;SDS011;9698;51.976;7.570;2023-07-31T04:38:18;11.33;;;5.27;;
19131;SDS011;9698;51.976;7.570;2023-07-31T04:40:47;9.43;;;5.00;;
19131;SDS011;9698;51.976;7.570;2023-07-31T04:43:15;15.30;;;5.80;;
19131;SDS011;9698;51.976;7.570;2023-07-31T04:45:45;9.77;;;4.73;;
19131;SDS011;9698;51.976;7.570;2023-07-31T04:48:14;11.07;;;4.70;;
19131;SDS011;9698;51.976;7.570;2023-07-31T04:50:42;12.30;;;5.00;;
19131;SDS011;9698;51.976;7.570;2023-07-31T04:53:10;11.13;;;4.87;;
19131;SDS011;9698;51.976;7.570;2023-07-31T04:55:38;11.53;;;5.60;;
19131;SDS011;9698;51.976;7.570;2023-07-31T04:58:05;12.67;;;5.07;;
19131;SDS011;9698;51.976;7.570;2023-07-31T05:00:33;10.10;;;4.77;;
19131;SDS011;9698;51.976;7.570;2023-07-31T05:03:01;11.00;;;4.97;;
19131;SDS011;9698;51.976;7.570;2023-07-31T05:05:29;10.67;;;5.50;;
19131;SDS011;9698;51.976;7.570;2023-07-31T05:07:58;9.80;;;4.77;;
19131;SDS011;9698;51.976;7.570;2023-07-31T05:10:26;11.70;;;5.10;;
19131;SDS011;9698;51.976;7.570;2023-07-31T05:12:54;12.87;;;4.60;;
19131;SDS011;9698;51.976;7.570;2023-07-31T05:15:22;11.43;;;5.10;;
19131;SDS011;9698;51.976;7.570;2023-07-31T05:17:50;8.30;;;4.40;;
19131;SDS011;9698;51.976;7.570;2023-07-31T05:20:18;11.87;;;5.20;;
19131;SDS011;9698;51.976;7.570;2023-07-31T05:22:46;14.23;;;5.13;;
19131;SDS011;9698;51.976;7.570;2023-07-31T05:25:13;12.77;;;5.53;;
19131;SDS011;9698;51.976;7.570;2023-07-31T05:27:42;10.80;;;5.03;;
19131;SDS011;9698;51.976;7.570;2023-07-31T05:30:09;11.57;;;5.00;;
19131;SDS011;9698;51.976;7.570;2023-07-31T05:32:37;12.37;;;4.93;;
19131;SDS011;9698;51.976;7.570;2023-07-31T05:35:06;11.60;;;5.30;;
19131;SDS011;9698;51.976;7.570;2023-07-31T05:37:54;10.33;;;5.33;;
19131;SDS011;9698;51.976;7.570;2023-07-31T05:40:22;11.50;;;4.90;;
19131;SDS011;9698;51.976;7.570;2023-07-31T05:42:50;11.40;;;5.30;;
19131;SDS011;9698;51.976;7.570;2023-07-31T05:45:19;12.40;;;5.07;;
19131;SDS011;9698;51.976;7.570;2023-07-31T05:47:46;9.23;;;5.17;;
19131;SDS011;9698;51.976;7.570;2023-07-31T05:50:14;13.17;;;5.27;;
19131;SDS011;9698;51.976;7.570;2023-07-31T05:52:42;12.90;;;5.30;;
19131;SDS011;9698;51.976;7.570;2023-07-31T05:55:10;10.07;;;5.10;;
19131;SDS011;9698;51.976;7.570;2023-07-31T05:57:38;10.17;;;4.80;;
19131;SDS011;9698;51.976;7.570;2023-07-31T06:00:08;11.40;;;4.83;;
19131;SDS011;9698;51.976;7.570;2023-07-31T06:02:37;11.20;;;5.27;;
19131;SDS011;9698;51.976;7.570;2023-07-31T06:05:06;12.73;;;4.80;;
19131;SDS011;9698;51.976;7.570;2023-07-31T06:07:35;12.03;;;4.93;;
19131;SDS011;9698;51.976;7.570;2023-07-31T06:10:04;10.40;;;4.93;;
19131;SDS011;9698;51.976;7.570;2023-07-31T06:12:34;9.40;;;4.73;;
19131;SDS011;9698;51.976;7.570;2023-07-31T06:15:03;11.37;;;5.10;;
19131;SDS011;9698;51.976;7.570;2023-07-31T06:17:32;9.17;;;4.93;;
19131;SDS011;9698;51.976;7.570;2023-07-31T06:20:00;8.37;;;4.60;;
19131;SDS011;9698;51.976;7.570;2023-07-31T06:22:29;10.87;;;5.53;;
19131;SDS011;9698;51.976;7.570;2023-07-31T06:24:58;11.23;;;4.97;;
19131;SDS011;9698;51.976;7.570;2023-07-31T06:27:26;11.60;;;4.70;;
19131;SDS011;9698;51.976;7.570;2023-07-31T06:29:54;10.03;;;5.13;;
19131;SDS011;9698;51.976;7.570;2023-07-31T06:32:22;10.00;;;4.80;;
19131;SDS011;9698;51.976;7.570;2023-07-31T06:34:50;8.87;;;4.80;;
19131;SDS011;9698;51.976;7.570;2023-07-31T06:37:17;9.10;;;5.27;;
19131;SDS011;9698;51.976;7.570;2023-07-31T06:39:45;10.07;;;5.23;;
19131;SDS011;9698;51.976;7.570;2023-07-31T06:42:13;8.50;;;4.83;;
19131;SDS011;9698;51.976;7.570;2023-07-31T06:45:01;7.87;;;4.27;;
19131;SDS011;9698;51.976;7.570;2023-07-31T06:47:29;12.20;;;4.60;;
19131;SDS011;9698;51.976;7.570;2023-07-31T06:49:58;8.70;;;4.30;;
19131;SDS011;9698;51.976;7.570;2023-07-31T06:52:26;10.03;;;4.57;;
19131;SDS011;9698;51.976;7.570;2023-07-31T06:55:00;11.40;;;5.00;;
19131;SDS011;9698;51.976;7.570;2023-07-31T06:57:30;9.87;;;5.30;;
19131;SDS011;9698;51.976;7.570;2023-07-31T06:59:58;11.63;;;4.80;;
19131;SDS011;9698;51.976;7.570;2023-07-31T07:02:26;11.67;;;4.80;;
19131;SDS011;9698;51.976;7.570;2023-07-31T07:04:54;7.67;;;4.57;;
19131;SDS011;9698;51.976;7.570;2023-07-31T07:07:22;8.07;;;4.93;;
19131;SDS011;9698;51.976;7.570;2023-07-31T07:09:50;9.43;;;4.43;;
19131;SDS011;9698;51.976;7.570;2023-07-31T07:12:18;11.43;;;5.17;;
19131;SDS011;9698;51.976;7.570;2023-07-31T07:14:46;8.37;;;5.30;;
19131;SDS011;9698;51.976;7.570;2023-07-31T07:17:14;7.13;;;4.67;;
19131;SDS011;9698;51.976;7.570;2023-07-31T07:19:42;9.37;;;4.90;;
19131;SDS011;9698;51.976;7.570;2023-07-31T07:22:10;6.80;;;4.33;;
19131;SDS011;9698;51.976;7.570;2023-07-31T07:24:38;7.87;;;4.57;;
19131;SDS011;9698;51.976;7.570;2023-07-31T07:27:06;8.90;;;4.47;;
19131;SDS011;9698;51.976;7.570;2023-07-31T07:29:34;8.20;;;4.43;;
19131;SDS011;9698;51.976;7.570;2023-07-31T07:32:02;6.60;;;4.37;;
19131;SDS011;9698;51.976;7.570;2023-07-31T07:34:30;6.43;;;4.13;;
19131;SDS011;9698;51.976;7.570;2023-07-31T07:36:58;9.03;;;4.80;;
19131;SDS011;9698;51.976;7.570;2023-07-31T07:39:26;8.40;;;4.80;;
19131;SDS011;9698;51.976;7.570;2023-07-31T07:41:54;10.20;;;5.00;;
19131;SDS011;9698;51.976;7.570;2023-07-31T07:44:22;7.17;;;4.50;;
19131;SDS011;9698;51.976;7.570;2023-07-31T07:46:50;8.20;;;4.77;;
19131;SDS011;9698;51.976;7.570;2023-07-31T07:49:18;8.17;;;4.97;;
19131;SDS011;9698;51.976;7.570;2023-07-31T07:51:48;8.70;;;5.30;;
19131;SDS011;9698;51.976;7.570;2023-07-31T07:54:17;8.00;;;4.47;;
19131;SDS011;9698;51.976;7.570;2023-07-31T07:56:45;5.50;;;4.40;;
19131;SDS011;9698;51.976;7.570;2023-07-31T07:59:13;6.77;;;5.10;;
19131;SDS011;9698;51.976;7.570;2023-07-31T08:01:41;6.80;;;5.03;;
19131;SDS011;9698;51.976;7.570;2023-07-31T08:04:09;6.67;;;4.60;;
19131;SDS011;9698;51.976;7.570;2023-07-31T08:06:38;5.83;;;4.40;;
19131;SDS011;9698;51.976;7.570;2023-07-31T08:09:06;5.07;;;4.53;;
19131;SDS011;9698;51.976;7.570;2023-07-31T08:11:35;4.67;;;3.70;;
19131;SDS011;9698;51.976;7.570;2023-07-31T08:14:03;4.47;;;4.07;;
19131;SDS011;9698;51.976;7.570;2023-07-31T08:16:31;4.60;;;3.80;;
19131;SDS011;9698;51.976;7.570;2023-07-31T08:18:58;4.40;;;4.00;;
19131;SDS011;9698;51.976;7.570;2023-07-31T08:21:27;5.30;;;4.23;;
19131;SDS011;9698;51.976;7.570;2023-07-31T08:23:55;4.80;;;4.40;;
19131;SDS011;9698;51.976;7.570;2023-07-31T08:26:23;5.40;;;4.40;;
19131;SDS011;9698;51.976;7.570;2023-07-31T08:28:51;4.60;;;4.20;;
19131;SDS011;9698;51.976;7.570;2023-07-31T08:31:18;6.23;;;4.53;;
19131;SDS011;9698;51.976;7.570;2023-07-31T08:33:46;4.77;;;4.30;;
19131;SDS011;9698;51.976;7.570;2023-07-31T08:36:14;5.43;;;4.77;;
19131;SDS011;9698;51.976;7.570;2023-07-31T08:38:42;4.83;;;4.33;;
19131;SDS011;9698;51.976;7.570;2023-07-31T08:41:11;4.83;;;4.43;;
19131;SDS011;9698;51.976;7.570;2023-07-31T08:43:39;6.77;;;4.90;;
19131;SDS011;9698;51.976;7.570;2023-07-31T08:46:08;4.43;;;4.00;;
19131;SDS011;9698;51.976;7.570;2023-07-31T08:48:37;4.73;;;3.63;;
19131;SDS011;9698;51.976;7.570;2023-07-31T08:51:05;3.93;;;3.57;;
19131;SDS011;9698;51.976;7.570;2023-07-31T08:53:33;4.17;;;3.67;;
19131;SDS011;9698;51.976;7.570;2023-07-31T08:56:02;4.30;;;3.43;;
19131;SDS011;9698;51.976;7.570;2023-07-31T08:58:31;3.87;;;3.33;;
19131;SDS011;9698;51.976;7.570;2023-07-31T09:01:00;3.53;;;3.23;;
19131;SDS011;9698;51.976;7.570;2023-07-31T09:03:32;3.70;;;3.40;;
19131;SDS011;9698;51.976;7.570;2023-07-31T09:06:03;4.30;;;3.90;;
19131;SDS011;9698;51.976;7.570;2023-07-31T09:08:32;3.60;;;3.30;;
19131;SDS011;9698;51.976;7.570;2023-07-31T09:11:00;4.23;;;3.60;;
19131;SDS011;9698;51.976;7.570;2023-07-31T09:13:30;4.20;;;3.50;;
19131;SDS011;9698;51.976;7.570;2023-07-31T09:15:58;3.73;;;3.30;;
19131;SDS011;9698;51.976;7.570;2023-07-31T09:18:26;5.93;;;3.80;;
19131;SDS011;9698;51.976;7.570;2023-07-31T09:23:49;3.47;;;3.17;;
19131;SDS011;9698;51.976;7.570;2023-07-31T09:26:31;3.70;;;3.40;;
19131;SDS011;9698;51.976;7.570;2023-07-31T09:29:04;3.67;;;3.37;;
19131;SDS011;9698;51.976;7.570;2023-07-31T09:31:43;4.60;;;3.67;;
19131;SDS011;9698;51.976;7.570;2023-07-31T09:34:11;3.87;;;3.40;;
19131;SDS011;9698;51.976;7.570;2023-07-31T09:36:40;4.07;;;3.70;;
19131;SDS011;9698;51.976;7.570;2023-07-31T09:39:09;6.03;;;3.97;;
19131;SDS011;9698;51.976;7.570;2023-07-31T09:41:38;5.27;;;4.40;;
19131;SDS011;9698;51.976;7.570;2023-07-31T09:44:09;4.77;;;4.30;;
19131;SDS011;9698;51.976;7.570;2023-07-31T09:46:37;5.57;;;4.27;;
19131;SDS011;9698;51.976;7.570;2023-07-31T09:49:08;4.83;;;4.23;;
19131;SDS011;9698;51.976;7.570;2023-07-31T09:51:37;4.53;;;3.90;;
19131;SDS011;9698;51.976;7.570;2023-07-31T09:56:56;4.60;;;4.03;;
19131;SDS011;9698;51.976;7.570;2023-07-31T09:59:26;4.50;;;4.10;;
19131;SDS011;9698;51.976;7.570;2023-07-31T10:01:54;4.23;;;3.90;;
19131;SDS011;9698;51.976;7.570;2023-07-31T10:04:25;5.23;;;3.83;;
19131;SDS011;9698;51.976;7.570;2023-07-31T10:06:55;5.03;;;3.80;;
19131;SDS011;9698;51.976;7.570;2023-07-31T10:09:23;4.37;;;3.50;;
19131;SDS011;9698;51.976;7.570;2023-07-31T10:11:59;4.10;;;3.70;;
19131;SDS011;9698;51.976;7.570;2023-07-31T10:14:30;4.57;;;3.83;;
19131;SDS011;9698;51.976;7.570;2023-07-31T10:16:59;4.87;;;4.00;;
19131;SDS011;9698;51.976;7.570;2023-07-31T10:19:27;3.63;;;3.33;;
19131;SDS011;9698;51.976;7.570;2023-07-31T10:21:57;4.50;;;4.10;;
19131;SDS011;9698;51.976;7.570;2023-07-31T10:24:26;4.33;;;3.93;;
19131;SDS011;9698;51.976;7.570;2023-07-31T10:26:54;3.93;;;3.43;;
19131;SDS011;9698;51.976;7.570;2023-07-31T10:29:26;4.23;;;3.47;;
19131;SDS011;9698;51.976;7.570;2023-07-31T10:31:56;4.07;;;3.77;;
19131;SDS011;9698;51.976;7.570;2023-07-31T10:34:25;4.00;;;3.70;;
19131;SDS011;9698;51.976;7.570;2023-07-31T10:39:55;4.47;;;4.00;;
19131;SDS011;9698;51.976;7.570;2023-07-31T10:42:28;4.63;;;4.23;;
19131;SDS011;9698;51.976;7.570;2023-07-31T10:45:01;5.50;;;4.20;;
19131;SDS011;9698;51.976;7.570;2023-07-31T10:47:30;5.30;;;4.13;;
19131;SDS011;9698;51.976;7.570;2023-07-31T10:53:09;4.63;;;4.10;;
19131;SDS011;9698;51.976;7.570;2023-07-31T10:55:50;4.10;;;3.70;;
19131;SDS011;9698;51.976;7.570;2023-07-31T10:58:19;4.80;;;3.63;;
19131;SDS011;9698;51.976;7.570;2023-07-31T11:00:47;4.23;;;3.83;;
19131;SDS011;9698;51.976;7.570;2023-07-31T11:03:16;5.07;;;3.67;;
19131;SDS011;9698;51.976;7.570;2023-07-31T11:05:48;4.67;;;3.80;;
19131;SDS011;9698;51.976;7.570;2023-07-31T11:08:20;5.13;;;4.00;;
19131;SDS011;9698;51.976;7.570;2023-07-31T11:10:50;7.20;;;3.60;;
19131;SDS011;9698;51.976;7.570;2023-07-31T11:13:31;3.70;;;3.40;;
19131;SDS011;9698;51.976;7.570;2023-07-31T11:16:00;3.77;;;3.47;;
19131;SDS011;9698;51.976;7.570;2023-07-31T11:18:28;3.57;;;3.27;;
19131;SDS011;9698;51.976;7.570;2023-07-31T11:20:56;4.13;;;3.73;;
19131;SDS011;9698;51.976;7.570;2023-07-31T11:23:24;4.60;;;3.73;;
19131;SDS011;9698;51.976;7.570;2023-07-31T11:25:52;5.17;;;4.20;;
19131;SDS011;9698;51.976;7.570;2023-07-31T11:28:25;4.13;;;3.70;;
19131;SDS011;9698;51.976;7.570;2023-07-31T11:30:57;5.20;;;3.67;;
19131;SDS011;9698;51.976;7.570;2023-07-31T11:33:26;4.10;;;3.67;;
19131;SDS011;9698;51.976;7.570;2023-07-31T11:35:54;5.23;;;3.47;;
19131;SDS011;9698;51.976;7.570;2023-07-31T11:38:40;3.87;;;3.57;;
19131;SDS011;9698;51.976;7.570;2023-07-31T11:41:08;3.80;;;3.50;;
19131;SDS011;9698;51.976;7.570;2023-07-31T11:43:36;3.63;;;3.30;;
19131;SDS011;9698;51.976;7.570;2023-07-31T11:46:03;4.17;;;3.50;;
19131;SDS011;9698;51.976;7.570;2023-07-31T11:48:33;3.90;;;3.60;;
19131;SDS011;9698;51.976;7.570;2023-07-31T11:51:03;4.47;;;3.90;;
19131;SDS011;9698;51.976;7.570;2023-07-31T11:53:33;4.20;;;3.80;;
19131;SDS011;9698;51.976;7.570;2023-07-31T11:56:03;4.33;;;3.93;;
19131;SDS011;9698;51.976;7.570;2023-07-31T11:58:32;5.43;;;4.57;;
19131;SDS011;9698;51.976;7.570;2023-07-31T12:01:02;4.50;;;4.20;;
19131;SDS011;9698;51.976;7.570;2023-07-31T12:03:30;5.83;;;4.63;;
19131;SDS011;9698;51.976;7.570;2023-07-31T12:05:59;5.43;;;4.93;;
19131;SDS011;9698;51.976;7.570;2023-07-31T12:08:29;6.20;;;5.27;;
19131;SDS011;9698;51.976;7.570;2023-07-31T12:11:02;6.73;;;5.40;;
19131;SDS011;9698;51.976;7.570;2023-07-31T12:13:31;6.30;;;5.60;;
19131;SDS011;9698;51.976;7.570;2023-07-31T12:16:00;8.57;;;6.33;;
19131;SDS011;9698;51.976;7.570;2023-07-31T12:18:33;7.27;;;6.27;;
19131;SDS011;9698;51.976;7.570;2023-07-31T12:21:02;6.90;;;6.30;;
19131;SDS011;9698;51.976;7.570;2023-07-31T12:23:33;7.97;;;7.20;;
19131;SDS011;9698;51.976;7.570;2023-07-31T12:26:02;7.30;;;6.60;;
19131;SDS011;9698;51.976;7.570;2023-07-31T12:28:34;8.37;;;6.70;;
19131;SDS011;9698;51.976;7.570;2023-07-31T12:31:03;6.80;;;5.60;;
19131;SDS011;9698;51.976;7.570;2023-07-31T12:33:33;8.33;;;5.70;;
19131;SDS011;9698;51.976;7.570;2023-07-31T12:36:02;6.00;;;5.37;;
19131;SDS011;9698;51.976;7.570;2023-07-31T12:38:31;6.90;;;5.40;;
19131;SDS011;9698;51.976;7.570;2023-07-31T12:40:59;6.43;;;4.37;;
19131;SDS011;9698;51.976;7.570;2023-07-31T12:43:27;5.10;;;4.30;;
19131;SDS011;9698;51.976;7.570;2023-07-31T12:45:55;4.80;;;4.10;;
19131;SDS011;9698;51.976;7.570;2023-07-31T12:48:24;4.57;;;4.10;;
19131;SDS011;9698;51.976;7.570;2023-07-31T12:50:52;4.37;;;3.97;;
19131;SDS011;9698;51.976;7.570;2023-07-31T12:53:21;4.63;;;4.17;;
19131;SDS011;9698;51.976;7.570;2023-07-31T12:55:49;5.73;;;4.20;;
19131;SDS011;9698;51.976;7.570;2023-07-31T12:58:17;7.07;;;4.73;;
19131;SDS011;9698;51.976;7.570;2023-07-31T13:00:45;4.43;;;4.03;;
19131;SDS011;9698;51.976;7.570;2023-07-31T13:03:13;5.07;;;4.37;;
19131;SDS011;9698;51.976;7.570;2023-07-31T13:05:41;5.97;;;3.77;;
19131;SDS011;9698;51.976;7.570;2023-07-31T13:08:09;6.47;;;4.60;;
19131;SDS011;9698;51.976;7.570;2023-07-31T13:10:38;4.40;;;4.00;;
19131;SDS011;9698;51.976;7.570;2023-07-31T13:13:06;4.57;;;4.00;;
19131;SDS011;9698;51.976;7.570;2023-07-31T13:15:34;4.63;;;3.83;;
19131;SDS011;9698;51.976;7.570;2023-07-31T13:18:02;4.33;;;3.93;;
19131;SDS011;9698;51.976;7.570;2023-07-31T13:20:30;4.67;;;3.73;;
19131;SDS011;9698;51.976;7.570;2023-07-31T13:22:58;4.20;;;3.77;;
19131;SDS011;9698;51.976;7.570;2023-07-31T13:25:26;4.70;;;4.20;;
19131;SDS011;9698;51.976;7.570;2023-07-31T13:27:55;6.10;;;4.10;;
19131;SDS011;9698;51.976;7.570;2023-07-31T13:30:26;6.17;;;4.60;;
19131;SDS011;9698;51.976;7.570;2023-07-31T13:32:54;6.80;;;5.40;;
19131;SDS011;9698;51.976;7.570;2023-07-31T13:35:41;4.57;;;4.17;;
19131;SDS011;9698;51.976;7.570;2023-07-31T13:38:09;4.80;;;4.17;;
19131;SDS011;9698;51.976;7.570;2023-07-31T13:40:37;5.77;;;4.30;;
19131;SDS011;9698;51.976;7.570;2023-07-31T13:43:05;6.57;;;4.70;;
19131;SDS011;9698;51.976;7.570;2023-07-31T13:45:33;6.13;;;4.40;;
19131;SDS011;9698;51.976;7.570;2023-07-31T13:48:01;6.10;;;4.67;;
19131;SDS011;9698;51.976;7.570;2023-07-31T13:50:30;5.07;;;4.57;;
19131;SDS011;9698;51.976;7.570;2023-07-31T13:52:58;4.90;;;4.50;;
19131;SDS011;9698;51.976;7.570;2023-07-31T13:55:26;5.33;;;4.47;;
19131;SDS011;9698;51.976;7.570;2023-07-31T13:57:54;4.93;;;4.30;;
19131;SDS011;9698;51.976;7.570;2023-07-31T14:00:22;5.53;;;4.73;;
19131;SDS011;9698;51.976;7.570;2023-07-31T14:02:50;4.73;;;4.33;;
19131;SDS011;9698;51.976;7.570;2023-07-31T14:05:18;6.17;;;4.40;;
19131;SDS011;9698;51.976;7.570;2023-07-31T14:07:47;7.33;;;4.23;;
19131;SDS011;9698;51.976;7.570;2023-07-31T14:10:15;6.33;;;4.53;;
19131;SDS011;9698;51.976;7.570;2023-07-31T14:12:44;5.40;;;4.90;;
19131;SDS011;9698;51.976;7.570;2023-07-31T14:15:12;6.63;;;5.60;;
19131;SDS011;9698;51.976;7.570;2023-07-31T14:17:40;6.00;;;5.40;;
19131;SDS011;9698;51.976;7.570;2023-07-31T14:20:10;6.03;;;5.53;;
19131;SDS011;9698;51.976;7.570;2023-07-31T14:22:39;8.73;;;5.50;;
19131;SDS011;9698;51.976;7.570;2023-07-31T14:25:08;6.03;;;5.47;;
19131;SDS011;9698;51.976;7.570;2023-07-31T14:27:36;7.43;;;5.60;;
19131;SDS011;9698;51.976;7.570;2023-07-31T14:30:06;5.90;;;5.40;;
19131;SDS011;9698;51.976;7.570;2023-07-31T14:32:36;5.87;;;5.37;;
19131;SDS011;9698;51.976;7.570;2023-07-31T14:35:04;5.13;;;4.73;;
19131;SDS011;9698;51.976;7.570;2023-07-31T14:37:37;6.83;;;5.40;;
19131;SDS011;9698;51.976;7.570;2023-07-31T14:40:06;5.20;;;4.70;;
19131;SDS011;9698;51.976;7.570;2023-07-31T14:42:35;5.77;;;4.57;;
19131;SDS011;9698;51.976;7.570;2023-07-31T14:45:04;9.30;;;4.70;;
19131;SDS011;9698;51.976;7.570;2023-07-31T14:47:34;4.57;;;4.27;;
19131;SDS011;9698;51.976;7.570;2023-07-31T14:50:02;5.67;;;4.30;;
19131;SDS011;9698;51.976;7.570;2023-07-31T14:52:32;4.50;;;4.10;;
19131;SDS011;9698;51.976;7.570;2023-07-31T14:55:00;5.30;;;4.70;;
19131;SDS011;9698;51.976;7.570;2023-07-31T14:57:29;4.77;;;4.33;;
19131;SDS011;9698;51.976;7.570;2023-07-31T14:59:57;5.07;;;4.60;;
19131;SDS011;9698;51.976;7.570;2023-07-31T15:02:26;6.50;;;5.80;;
19131;SDS011;9698;51.976;7.570;2023-07-31T15:04:54;6.03;;;5.53;;
19131;SDS011;9698;51.976;7.570;2023-07-31T15:07:22;6.70;;;6.10;;
19131;SDS011;9698;51.976;7.570;2023-07-31T15:09:50;7.33;;;6.63;;
19131;SDS011;9698;51.976;7.570;2023-07-31T15:12:17;6.87;;;6.27;;
19131;SDS011;9698;51.976;7.570;2023-07-31T15:14:45;9.17;;;7.23;;
19131;SDS011;9698;51.976;7.570;2023-07-31T15:17:14;6.97;;;6.37;;
19131;SDS011;9698;51.976;7.570;2023-07-31T15:19:42;7.70;;;6.90;;
19131;SDS011;9698;51.976;7.570;2023-07-31T15:22:10;8.63;;;7.07;;